<?xml version="1.0" encoding="UTF-8" standalone="no" ?>
<gpx xmlns="http://www.topografix.com/GPX/1/1" xmlns:xsi="http://www.w3.org/2001/XMLSchema-instance" xsi:schemaLocation="http://www.topografix.com/GPX/1/1 http://www.topografix.com/GPX/1/1/gpx.xsd" version="1.1" creator="VisuGPX - https://www.visugpx.com">
  <metadata>
    <name>Davrinche20104</name>
    <desc><![CDATA[la partie 4 des itinéraires de repérage]]></desc>
  </metadata>
  <trk>
    <name><![CDATA[--Saint-Jacques-d'Ambur-- OR-5366937:ser-jb02-b]]></name>
    <trkseg>
      <trkpt lat="45.90027" lon="2.77586">
        <ele>684</ele>
        <time>2015-10-17T12:38:41Z</time>
      </trkpt>
      <trkpt lat="45.90071" lon="2.77586">
        <ele>684</ele>
        <time>2015-10-17T12:40:41Z</time>
      </trkpt>
      <trkpt lat="45.90116" lon="2.7761">
        <ele>685</ele>
        <time>2015-10-17T12:42:41Z</time>
      </trkpt>
      <trkpt lat="45.90182" lon="2.77644">
        <ele>685</ele>
        <time>2015-10-17T12:44:41Z</time>
      </trkpt>
      <trkpt lat="45.90251" lon="2.77608">
        <ele>686</ele>
        <time>2015-10-17T12:46:41Z</time>
      </trkpt>
      <trkpt lat="45.90363" lon="2.77546">
        <ele>686</ele>
        <time>2015-10-17T12:48:41Z</time>
      </trkpt>
      <trkpt lat="45.90431" lon="2.77423">
        <ele>683</ele>
        <time>2015-10-17T12:50:41Z</time>
      </trkpt>
      <trkpt lat="45.90425" lon="2.7726">
        <ele>680</ele>
        <time>2015-10-17T12:52:41Z</time>
      </trkpt>
      <trkpt lat="45.90439" lon="2.77082">
        <ele>680</ele>
        <time>2015-10-17T12:54:41Z</time>
      </trkpt>
      <trkpt lat="45.90458" lon="2.76988">
        <ele>679</ele>
        <time>2015-10-17T12:56:41Z</time>
      </trkpt>
      <trkpt lat="45.90457" lon="2.7691">
        <ele>678</ele>
        <time>2015-10-17T12:58:41Z</time>
      </trkpt>
      <trkpt lat="45.90439" lon="2.76807">
        <ele>675</ele>
        <time>2015-10-17T13:00:41Z</time>
      </trkpt>
      <trkpt lat="45.90397" lon="2.76743">
        <ele>673</ele>
        <time>2015-10-17T13:02:41Z</time>
      </trkpt>
      <trkpt lat="45.90283" lon="2.76679">
        <ele>661</ele>
        <time>2015-10-17T13:04:41Z</time>
      </trkpt>
      <trkpt lat="45.90207" lon="2.76617">
        <ele>645</ele>
        <time>2015-10-17T13:06:41Z</time>
      </trkpt>
      <trkpt lat="45.90189" lon="2.7649">
        <ele>632</ele>
        <time>2015-10-17T13:08:41Z</time>
      </trkpt>
      <trkpt lat="45.90216" lon="2.76396">
        <ele>626</ele>
        <time>2015-10-17T13:10:41Z</time>
      </trkpt>
      <trkpt lat="45.90243" lon="2.76308">
        <ele>618</ele>
        <time>2015-10-17T13:12:41Z</time>
      </trkpt>
      <trkpt lat="45.90294" lon="2.76241">
        <ele>614</ele>
        <time>2015-10-17T13:14:41Z</time>
      </trkpt>
      <trkpt lat="45.90325" lon="2.76179">
        <ele>606</ele>
        <time>2015-10-17T13:16:41Z</time>
      </trkpt>
      <trkpt lat="45.90363" lon="2.76074">
        <ele>585</ele>
        <time>2015-10-17T13:18:41Z</time>
      </trkpt>
      <trkpt lat="45.90395" lon="2.76061">
        <ele>590</ele>
        <time>2015-10-17T13:20:41Z</time>
      </trkpt>
      <trkpt lat="45.90412" lon="2.76056">
        <ele>593</ele>
        <time>2015-10-17T13:22:41Z</time>
      </trkpt>
      <trkpt lat="45.90427" lon="2.75992">
        <ele>578</ele>
        <time>2015-10-17T13:24:41Z</time>
      </trkpt>
      <trkpt lat="45.90466" lon="2.75934">
        <ele>570</ele>
        <time>2015-10-17T13:26:41Z</time>
      </trkpt>
      <trkpt lat="45.90521" lon="2.75885">
        <ele>562</ele>
        <time>2015-10-17T13:28:41Z</time>
      </trkpt>
      <trkpt lat="45.90588" lon="2.75838">
        <ele>551</ele>
        <time>2015-10-17T13:30:41Z</time>
      </trkpt>
      <trkpt lat="45.9063" lon="2.75803">
        <ele>534</ele>
        <time>2015-10-17T13:32:41Z</time>
      </trkpt>
      <trkpt lat="45.9067" lon="2.75803">
        <ele>529</ele>
        <time>2015-10-17T13:34:41Z</time>
      </trkpt>
      <trkpt lat="45.90654" lon="2.75773">
        <ele>521</ele>
        <time>2015-10-17T13:36:41Z</time>
      </trkpt>
      <trkpt lat="45.90619" lon="2.75769">
        <ele>523</ele>
        <time>2015-10-17T13:38:41Z</time>
      </trkpt>
      <trkpt lat="45.90587" lon="2.75771">
        <ele>526</ele>
        <time>2015-10-17T13:40:41Z</time>
      </trkpt>
      <trkpt lat="45.90561" lon="2.75763">
        <ele>524</ele>
        <time>2015-10-17T13:42:41Z</time>
      </trkpt>
      <trkpt lat="45.90566" lon="2.75745">
        <ele>520</ele>
        <time>2015-10-17T13:44:41Z</time>
      </trkpt>
      <trkpt lat="45.90595" lon="2.75707">
        <ele>520</ele>
        <time>2015-10-17T13:46:41Z</time>
      </trkpt>
      <trkpt lat="45.90636" lon="2.75644">
        <ele>514</ele>
        <time>2015-10-17T13:48:41Z</time>
      </trkpt>
      <trkpt lat="45.90646" lon="2.75614">
        <ele>514</ele>
        <time>2015-10-17T13:50:41Z</time>
      </trkpt>
      <trkpt lat="45.90639" lon="2.75574">
        <ele>519</ele>
        <time>2015-10-17T13:52:41Z</time>
      </trkpt>
      <trkpt lat="45.90634" lon="2.75541">
        <ele>521</ele>
        <time>2015-10-17T13:54:41Z</time>
      </trkpt>
      <trkpt lat="45.90676" lon="2.75471">
        <ele>524</ele>
        <time>2015-10-17T13:56:41Z</time>
      </trkpt>
      <trkpt lat="45.90736" lon="2.75383">
        <ele>525</ele>
        <time>2015-10-17T13:58:41Z</time>
      </trkpt>
      <trkpt lat="45.90761" lon="2.7532">
        <ele>528</ele>
        <time>2015-10-17T14:00:41Z</time>
      </trkpt>
      <trkpt lat="45.90764" lon="2.75241">
        <ele>537</ele>
        <time>2015-10-17T14:02:41Z</time>
      </trkpt>
      <trkpt lat="45.90763" lon="2.75194">
        <ele>541</ele>
        <time>2015-10-17T14:04:41Z</time>
      </trkpt>
      <trkpt lat="45.90775" lon="2.75084">
        <ele>546</ele>
        <time>2015-10-17T14:06:41Z</time>
      </trkpt>
      <trkpt lat="45.90807" lon="2.75044">
        <ele>535</ele>
        <time>2015-10-17T14:08:41Z</time>
      </trkpt>
      <trkpt lat="45.90803" lon="2.74988">
        <ele>532</ele>
        <time>2015-10-17T14:10:41Z</time>
      </trkpt>
      <trkpt lat="45.90749" lon="2.74928">
        <ele>533</ele>
        <time>2015-10-17T14:12:41Z</time>
      </trkpt>
      <trkpt lat="45.90696" lon="2.74887">
        <ele>534</ele>
        <time>2015-10-17T14:14:41Z</time>
      </trkpt>
      <trkpt lat="45.90631" lon="2.7484">
        <ele>531</ele>
        <time>2015-10-17T14:16:41Z</time>
      </trkpt>
      <trkpt lat="45.90548" lon="2.7475">
        <ele>522</ele>
        <time>2015-10-17T14:18:41Z</time>
      </trkpt>
      <trkpt lat="45.90509" lon="2.74711">
        <ele>520</ele>
        <time>2015-10-17T14:20:41Z</time>
      </trkpt>
      <trkpt lat="45.90454" lon="2.74709">
        <ele>525</ele>
        <time>2015-10-17T14:22:41Z</time>
      </trkpt>
      <trkpt lat="45.90409" lon="2.74724">
        <ele>533</ele>
        <time>2015-10-17T14:24:41Z</time>
      </trkpt>
      <trkpt lat="45.90363" lon="2.74748">
        <ele>544</ele>
        <time>2015-10-17T14:26:41Z</time>
      </trkpt>
      <trkpt lat="45.90322" lon="2.74737">
        <ele>546</ele>
        <time>2015-10-17T14:28:41Z</time>
      </trkpt>
      <trkpt lat="45.90267" lon="2.74702">
        <ele>545</ele>
        <time>2015-10-17T14:30:41Z</time>
      </trkpt>
      <trkpt lat="45.90239" lon="2.74694">
        <ele>546</ele>
        <time>2015-10-17T14:32:41Z</time>
      </trkpt>
      <trkpt lat="45.90167" lon="2.74713">
        <ele>552</ele>
        <time>2015-10-17T14:34:41Z</time>
      </trkpt>
      <trkpt lat="45.90097" lon="2.74743">
        <ele>558</ele>
        <time>2015-10-17T14:36:41Z</time>
      </trkpt>
      <trkpt lat="45.90022" lon="2.74765">
        <ele>569</ele>
        <time>2015-10-17T14:38:41Z</time>
      </trkpt>
      <trkpt lat="45.89973" lon="2.74767">
        <ele>575</ele>
        <time>2015-10-17T14:40:41Z</time>
      </trkpt>
      <trkpt lat="45.89932" lon="2.74775">
        <ele>582</ele>
        <time>2015-10-17T14:42:41Z</time>
      </trkpt>
      <trkpt lat="45.89915" lon="2.74765">
        <ele>583</ele>
        <time>2015-10-17T14:44:41Z</time>
      </trkpt>
      <trkpt lat="45.89919" lon="2.74726">
        <ele>578</ele>
        <time>2015-10-17T14:46:41Z</time>
      </trkpt>
      <trkpt lat="45.89916" lon="2.74668">
        <ele>576</ele>
        <time>2015-10-17T14:48:41Z</time>
      </trkpt>
      <trkpt lat="45.8988" lon="2.7463">
        <ele>581</ele>
        <time>2015-10-17T14:50:41Z</time>
      </trkpt>
      <trkpt lat="45.89847" lon="2.74608">
        <ele>587</ele>
        <time>2015-10-17T14:52:41Z</time>
      </trkpt>
      <trkpt lat="45.89829" lon="2.74602">
        <ele>591</ele>
        <time>2015-10-17T14:54:41Z</time>
      </trkpt>
      <trkpt lat="45.89816" lon="2.74574">
        <ele>595</ele>
        <time>2015-10-17T14:56:41Z</time>
      </trkpt>
      <trkpt lat="45.89803" lon="2.74488">
        <ele>594</ele>
        <time>2015-10-17T14:58:41Z</time>
      </trkpt>
      <trkpt lat="45.89832" lon="2.74381">
        <ele>591</ele>
        <time>2015-10-17T15:00:41Z</time>
      </trkpt>
      <trkpt lat="45.89859" lon="2.74275">
        <ele>593</ele>
        <time>2015-10-17T15:02:41Z</time>
      </trkpt>
      <trkpt lat="45.89892" lon="2.74237">
        <ele>587</ele>
        <time>2015-10-17T15:04:41Z</time>
      </trkpt>
      <trkpt lat="45.89916" lon="2.74233">
        <ele>581</ele>
        <time>2015-10-17T15:06:41Z</time>
      </trkpt>
      <trkpt lat="45.89932" lon="2.74177">
        <ele>583</ele>
        <time>2015-10-17T15:08:41Z</time>
      </trkpt>
      <trkpt lat="45.89944" lon="2.74089">
        <ele>586</ele>
        <time>2015-10-17T15:10:41Z</time>
      </trkpt>
      <trkpt lat="45.89932" lon="2.74016">
        <ele>593</ele>
        <time>2015-10-17T15:12:41Z</time>
      </trkpt>
      <trkpt lat="45.8991" lon="2.73932">
        <ele>601</ele>
        <time>2015-10-17T15:14:41Z</time>
      </trkpt>
      <trkpt lat="45.89885" lon="2.73889">
        <ele>606</ele>
        <time>2015-10-17T15:16:41Z</time>
      </trkpt>
      <trkpt lat="45.89846" lon="2.73851">
        <ele>610</ele>
        <time>2015-10-17T15:18:41Z</time>
      </trkpt>
      <trkpt lat="45.89815" lon="2.73857">
        <ele>611</ele>
        <time>2015-10-17T15:20:41Z</time>
      </trkpt>
      <trkpt lat="45.89785" lon="2.73896">
        <ele>616</ele>
        <time>2015-10-17T15:22:41Z</time>
      </trkpt>
      <trkpt lat="45.89756" lon="2.73962">
        <ele>626</ele>
        <time>2015-10-17T15:24:41Z</time>
      </trkpt>
      <trkpt lat="45.89737" lon="2.74039">
        <ele>633</ele>
        <time>2015-10-17T15:26:41Z</time>
      </trkpt>
      <trkpt lat="45.89726" lon="2.74136">
        <ele>635</ele>
        <time>2015-10-17T15:28:41Z</time>
      </trkpt>
      <trkpt lat="45.89711" lon="2.74207">
        <ele>637</ele>
        <time>2015-10-17T15:30:41Z</time>
      </trkpt>
      <trkpt lat="45.89691" lon="2.74254">
        <ele>641</ele>
        <time>2015-10-17T15:32:41Z</time>
      </trkpt>
      <trkpt lat="45.89632" lon="2.74321">
        <ele>650</ele>
        <time>2015-10-17T15:34:41Z</time>
      </trkpt>
      <trkpt lat="45.89583" lon="2.74368">
        <ele>658</ele>
        <time>2015-10-17T15:36:41Z</time>
      </trkpt>
      <trkpt lat="45.89541" lon="2.74394">
        <ele>668</ele>
        <time>2015-10-17T15:38:41Z</time>
      </trkpt>
      <trkpt lat="45.89517" lon="2.74421">
        <ele>672</ele>
        <time>2015-10-17T15:40:41Z</time>
      </trkpt>
      <trkpt lat="45.89516" lon="2.74447">
        <ele>676</ele>
        <time>2015-10-17T15:42:41Z</time>
      </trkpt>
      <trkpt lat="45.89543" lon="2.74462">
        <ele>672</ele>
        <time>2015-10-17T15:44:41Z</time>
      </trkpt>
      <trkpt lat="45.89583" lon="2.74542">
        <ele>676</ele>
        <time>2015-10-17T15:46:41Z</time>
      </trkpt>
      <trkpt lat="45.89565" lon="2.74559">
        <ele>681</ele>
        <time>2015-10-17T15:48:41Z</time>
      </trkpt>
      <trkpt lat="45.89519" lon="2.7455">
        <ele>687</ele>
        <time>2015-10-17T15:50:41Z</time>
      </trkpt>
      <trkpt lat="45.89483" lon="2.74569">
        <ele>694</ele>
        <time>2015-10-17T15:52:41Z</time>
      </trkpt>
      <trkpt lat="45.89461" lon="2.74606">
        <ele>700</ele>
        <time>2015-10-17T15:54:41Z</time>
      </trkpt>
      <trkpt lat="45.8944" lon="2.74664">
        <ele>708</ele>
        <time>2015-10-17T15:56:41Z</time>
      </trkpt>
      <trkpt lat="45.89401" lon="2.747">
        <ele>715</ele>
        <time>2015-10-17T15:58:41Z</time>
      </trkpt>
      <trkpt lat="45.89365" lon="2.74739">
        <ele>720</ele>
        <time>2015-10-17T16:00:41Z</time>
      </trkpt>
      <trkpt lat="45.89326" lon="2.74758">
        <ele>722</ele>
        <time>2015-10-17T16:02:41Z</time>
      </trkpt>
      <trkpt lat="45.89286" lon="2.74758">
        <ele>726</ele>
        <time>2015-10-17T16:04:41Z</time>
      </trkpt>
      <trkpt lat="45.89252" lon="2.74769">
        <ele>729</ele>
        <time>2015-10-17T16:06:41Z</time>
      </trkpt>
      <trkpt lat="45.89211" lon="2.74788">
        <ele>735</ele>
        <time>2015-10-17T16:08:41Z</time>
      </trkpt>
      <trkpt lat="45.8918" lon="2.74814">
        <ele>738</ele>
        <time>2015-10-17T16:10:41Z</time>
      </trkpt>
      <trkpt lat="45.89165" lon="2.74833">
        <ele>739</ele>
        <time>2015-10-17T16:12:41Z</time>
      </trkpt>
      <trkpt lat="45.89134" lon="2.74904">
        <ele>741</ele>
        <time>2015-10-17T16:14:41Z</time>
      </trkpt>
      <trkpt lat="45.89104" lon="2.74962">
        <ele>744</ele>
        <time>2015-10-17T16:16:41Z</time>
      </trkpt>
      <trkpt lat="45.89096" lon="2.75011">
        <ele>745</ele>
        <time>2015-10-17T16:18:41Z</time>
      </trkpt>
      <trkpt lat="45.8905" lon="2.75074">
        <ele>752</ele>
        <time>2015-10-17T16:20:41Z</time>
      </trkpt>
      <trkpt lat="45.89017" lon="2.75142">
        <ele>754</ele>
        <time>2015-10-17T16:22:41Z</time>
      </trkpt>
      <trkpt lat="45.88984" lon="2.75192">
        <ele>755</ele>
        <time>2015-10-17T16:24:41Z</time>
      </trkpt>
      <trkpt lat="45.88941" lon="2.75226">
        <ele>757</ele>
        <time>2015-10-17T16:26:41Z</time>
      </trkpt>
      <trkpt lat="45.88883" lon="2.75267">
        <ele>759</ele>
        <time>2015-10-17T16:28:41Z</time>
      </trkpt>
      <trkpt lat="45.88839" lon="2.75308">
        <ele>759</ele>
        <time>2015-10-17T16:30:41Z</time>
      </trkpt>
      <trkpt lat="45.88778" lon="2.75335">
        <ele>757</ele>
        <time>2015-10-17T16:32:41Z</time>
      </trkpt>
      <trkpt lat="45.88708" lon="2.75368">
        <ele>757</ele>
        <time>2015-10-17T16:34:41Z</time>
      </trkpt>
      <trkpt lat="45.88676" lon="2.75408">
        <ele>755</ele>
        <time>2015-10-17T16:36:41Z</time>
      </trkpt>
      <trkpt lat="45.88606" lon="2.75477">
        <ele>752</ele>
        <time>2015-10-17T16:38:41Z</time>
      </trkpt>
      <trkpt lat="45.88585" lon="2.75441">
        <ele>756</ele>
        <time>2015-10-17T16:40:41Z</time>
      </trkpt>
      <trkpt lat="45.88556" lon="2.75428">
        <ele>757</ele>
        <time>2015-10-17T16:42:41Z</time>
      </trkpt>
      <trkpt lat="45.88518" lon="2.75454">
        <ele>754</ele>
        <time>2015-10-17T16:44:41Z</time>
      </trkpt>
      <trkpt lat="45.88479" lon="2.75464">
        <ele>755</ele>
        <time>2015-10-17T16:46:41Z</time>
      </trkpt>
      <trkpt lat="45.88452" lon="2.75503">
        <ele>755</ele>
        <time>2015-10-17T16:48:41Z</time>
      </trkpt>
      <trkpt lat="45.88402" lon="2.75569">
        <ele>753</ele>
        <time>2015-10-17T16:50:41Z</time>
      </trkpt>
      <trkpt lat="45.88339" lon="2.75565">
        <ele>753</ele>
        <time>2015-10-17T16:52:41Z</time>
      </trkpt>
      <trkpt lat="45.88294" lon="2.75548">
        <ele>756</ele>
        <time>2015-10-17T16:54:41Z</time>
      </trkpt>
      <trkpt lat="45.88258" lon="2.75548">
        <ele>757</ele>
        <time>2015-10-17T16:56:41Z</time>
      </trkpt>
      <trkpt lat="45.88236" lon="2.7555">
        <ele>757</ele>
        <time>2015-10-17T16:58:41Z</time>
      </trkpt>
      <trkpt lat="45.88184" lon="2.75587">
        <ele>754</ele>
        <time>2015-10-17T17:00:41Z</time>
      </trkpt>
      <trkpt lat="45.88148" lon="2.7561">
        <ele>752</ele>
        <time>2015-10-17T17:02:41Z</time>
      </trkpt>
      <trkpt lat="45.88055" lon="2.75679">
        <ele>746</ele>
        <time>2015-10-17T17:04:41Z</time>
      </trkpt>
      <trkpt lat="45.87997" lon="2.75825">
        <ele>739</ele>
        <time>2015-10-17T17:06:41Z</time>
      </trkpt>
      <trkpt lat="45.87989" lon="2.7587">
        <ele>737</ele>
        <time>2015-10-17T17:08:41Z</time>
      </trkpt>
      <trkpt lat="45.87915" lon="2.75986">
        <ele>733</ele>
        <time>2015-10-17T17:10:41Z</time>
      </trkpt>
      <trkpt lat="45.8793" lon="2.76014">
        <ele>733</ele>
        <time>2015-10-17T17:12:41Z</time>
      </trkpt>
      <trkpt lat="45.879" lon="2.76226">
        <ele>727</ele>
        <time>2015-10-17T17:14:41Z</time>
      </trkpt>
      <trkpt lat="45.87882" lon="2.76378">
        <ele>724</ele>
        <time>2015-10-17T17:16:41Z</time>
      </trkpt>
      <trkpt lat="45.87868" lon="2.76447">
        <ele>722</ele>
        <time>2015-10-17T17:18:41Z</time>
      </trkpt>
      <trkpt lat="45.87815" lon="2.76593">
        <ele>722</ele>
        <time>2015-10-17T17:20:41Z</time>
      </trkpt>
      <trkpt lat="45.87758" lon="2.76728">
        <ele>720</ele>
        <time>2015-10-17T17:22:41Z</time>
      </trkpt>
      <trkpt lat="45.87704" lon="2.76829">
        <ele>719</ele>
        <time>2015-10-17T17:24:41Z</time>
      </trkpt>
      <trkpt lat="45.87592" lon="2.77054">
        <ele>713</ele>
        <time>2015-10-17T17:26:41Z</time>
      </trkpt>
      <trkpt lat="45.87574" lon="2.7711">
        <ele>709</ele>
        <time>2015-10-17T17:28:41Z</time>
      </trkpt>
      <trkpt lat="45.87582" lon="2.77149">
        <ele>706</ele>
        <time>2015-10-17T17:30:41Z</time>
      </trkpt>
      <trkpt lat="45.8758" lon="2.77198">
        <ele>703</ele>
        <time>2015-10-17T17:32:41Z</time>
      </trkpt>
      <trkpt lat="45.87582" lon="2.7725">
        <ele>701</ele>
        <time>2015-10-17T17:34:41Z</time>
      </trkpt>
      <trkpt lat="45.87583" lon="2.77322">
        <ele>698</ele>
        <time>2015-10-17T17:36:41Z</time>
      </trkpt>
      <trkpt lat="45.87579" lon="2.77355">
        <ele>698</ele>
        <time>2015-10-17T17:38:41Z</time>
      </trkpt>
      <trkpt lat="45.87583" lon="2.77398">
        <ele>699</ele>
        <time>2015-10-17T17:40:41Z</time>
      </trkpt>
      <trkpt lat="45.87589" lon="2.77449">
        <ele>699</ele>
        <time>2015-10-17T17:42:41Z</time>
      </trkpt>
      <trkpt lat="45.87595" lon="2.77488">
        <ele>698</ele>
        <time>2015-10-17T17:44:41Z</time>
      </trkpt>
      <trkpt lat="45.87602" lon="2.77544">
        <ele>697</ele>
        <time>2015-10-17T17:46:41Z</time>
      </trkpt>
      <trkpt lat="45.87608" lon="2.77596">
        <ele>696</ele>
        <time>2015-10-17T17:48:41Z</time>
      </trkpt>
      <trkpt lat="45.87613" lon="2.77641">
        <ele>696</ele>
        <time>2015-10-17T17:50:41Z</time>
      </trkpt>
      <trkpt lat="45.87617" lon="2.77676">
        <ele>696</ele>
        <time>2015-10-17T17:52:41Z</time>
      </trkpt>
      <trkpt lat="45.87617" lon="2.77695">
        <ele>696</ele>
        <time>2015-10-17T17:54:41Z</time>
      </trkpt>
      <trkpt lat="45.87588" lon="2.77692">
        <ele>696</ele>
        <time>2015-10-17T17:56:41Z</time>
      </trkpt>
      <trkpt lat="45.87562" lon="2.77689">
        <ele>695</ele>
        <time>2015-10-17T17:58:41Z</time>
      </trkpt>
      <trkpt lat="45.87537" lon="2.77687">
        <ele>695</ele>
        <time>2015-10-17T18:00:41Z</time>
      </trkpt>
      <trkpt lat="45.87515" lon="2.77684">
        <ele>695</ele>
        <time>2015-10-17T18:02:41Z</time>
      </trkpt>
      <trkpt lat="45.87499" lon="2.77678">
        <ele>694</ele>
        <time>2015-10-17T18:04:41Z</time>
      </trkpt>
      <trkpt lat="45.87476" lon="2.7767">
        <ele>692</ele>
        <time>2015-10-17T18:06:41Z</time>
      </trkpt>
      <trkpt lat="45.87454" lon="2.77664">
        <ele>690</ele>
        <time>2015-10-17T18:08:41Z</time>
      </trkpt>
      <trkpt lat="45.87443" lon="2.77662">
        <ele>689</ele>
        <time>2015-10-17T18:10:41Z</time>
      </trkpt>
      <trkpt lat="45.87428" lon="2.77658">
        <ele>687</ele>
        <time>2015-10-17T18:12:41Z</time>
      </trkpt>
      <trkpt lat="45.87408" lon="2.7765">
        <ele>686</ele>
        <time>2015-10-17T18:14:41Z</time>
      </trkpt>
      <trkpt lat="45.8739" lon="2.77629">
        <ele>685</ele>
        <time>2015-10-17T18:16:41Z</time>
      </trkpt>
      <trkpt lat="45.87378" lon="2.77616">
        <ele>684</ele>
        <time>2015-10-17T18:18:41Z</time>
      </trkpt>
      <trkpt lat="45.87363" lon="2.77599">
        <ele>683</ele>
        <time>2015-10-17T18:20:41Z</time>
      </trkpt>
      <trkpt lat="45.87346" lon="2.77581">
        <ele>681</ele>
        <time>2015-10-17T18:22:41Z</time>
      </trkpt>
      <trkpt lat="45.87328" lon="2.77556">
        <ele>681</ele>
        <time>2015-10-17T18:24:41Z</time>
      </trkpt>
      <trkpt lat="45.87304" lon="2.7754">
        <ele>683</ele>
        <time>2015-10-17T18:26:41Z</time>
      </trkpt>
      <trkpt lat="45.87273" lon="2.77523">
        <ele>684</ele>
        <time>2015-10-17T18:28:41Z</time>
      </trkpt>
      <trkpt lat="45.87259" lon="2.77527">
        <ele>684</ele>
        <time>2015-10-17T18:30:41Z</time>
      </trkpt>
      <trkpt lat="45.87248" lon="2.77537">
        <ele>684</ele>
        <time>2015-10-17T18:32:41Z</time>
      </trkpt>
      <trkpt lat="45.8723" lon="2.77559">
        <ele>686</ele>
        <time>2015-10-17T18:34:41Z</time>
      </trkpt>
      <trkpt lat="45.87213" lon="2.77569">
        <ele>687</ele>
        <time>2015-10-17T18:36:41Z</time>
      </trkpt>
      <trkpt lat="45.87191" lon="2.77575">
        <ele>690</ele>
        <time>2015-10-17T18:38:41Z</time>
      </trkpt>
      <trkpt lat="45.87172" lon="2.77586">
        <ele>692</ele>
        <time>2015-10-17T18:40:41Z</time>
      </trkpt>
      <trkpt lat="45.87164" lon="2.77598">
        <ele>693</ele>
        <time>2015-10-17T18:42:41Z</time>
      </trkpt>
      <trkpt lat="45.87145" lon="2.77629">
        <ele>694</ele>
        <time>2015-10-17T18:44:41Z</time>
      </trkpt>
      <trkpt lat="45.87136" lon="2.77644">
        <ele>694</ele>
        <time>2015-10-17T18:46:41Z</time>
      </trkpt>
      <trkpt lat="45.87106" lon="2.77653">
        <ele>696</ele>
        <time>2015-10-17T18:48:41Z</time>
      </trkpt>
      <trkpt lat="45.87083" lon="2.77646">
        <ele>698</ele>
        <time>2015-10-17T18:50:41Z</time>
      </trkpt>
      <trkpt lat="45.87067" lon="2.77641">
        <ele>698</ele>
        <time>2015-10-17T18:52:41Z</time>
      </trkpt>
      <trkpt lat="45.87047" lon="2.77645">
        <ele>699</ele>
        <time>2015-10-17T18:54:41Z</time>
      </trkpt>
      <trkpt lat="45.87014" lon="2.77684">
        <ele>700</ele>
        <time>2015-10-17T18:56:41Z</time>
      </trkpt>
      <trkpt lat="45.86998" lon="2.77709">
        <ele>701</ele>
        <time>2015-10-17T18:58:41Z</time>
      </trkpt>
      <trkpt lat="45.86965" lon="2.77744">
        <ele>702</ele>
        <time>2015-10-17T19:00:41Z</time>
      </trkpt>
      <trkpt lat="45.86945" lon="2.77759">
        <ele>700</ele>
        <time>2015-10-17T19:02:41Z</time>
      </trkpt>
      <trkpt lat="45.8692" lon="2.77773">
        <ele>697</ele>
        <time>2015-10-17T19:04:41Z</time>
      </trkpt>
      <trkpt lat="45.86893" lon="2.77771">
        <ele>697</ele>
        <time>2015-10-17T19:06:41Z</time>
      </trkpt>
      <trkpt lat="45.86873" lon="2.77766">
        <ele>698</ele>
        <time>2015-10-17T19:08:41Z</time>
      </trkpt>
      <trkpt lat="45.86856" lon="2.77778">
        <ele>696</ele>
        <time>2015-10-17T19:10:41Z</time>
      </trkpt>
      <trkpt lat="45.86839" lon="2.77791">
        <ele>694</ele>
        <time>2015-10-17T19:12:41Z</time>
      </trkpt>
      <trkpt lat="45.86821" lon="2.77797">
        <ele>694</ele>
        <time>2015-10-17T19:14:41Z</time>
      </trkpt>
      <trkpt lat="45.86798" lon="2.77802">
        <ele>696</ele>
        <time>2015-10-17T19:16:41Z</time>
      </trkpt>
      <trkpt lat="45.86755" lon="2.77815">
        <ele>698</ele>
        <time>2015-10-17T19:18:41Z</time>
      </trkpt>
      <trkpt lat="45.86718" lon="2.7785">
        <ele>695</ele>
        <time>2015-10-17T19:20:41Z</time>
      </trkpt>
      <trkpt lat="45.86702" lon="2.77864">
        <ele>694</ele>
        <time>2015-10-17T19:22:41Z</time>
      </trkpt>
      <trkpt lat="45.8668" lon="2.77887">
        <ele>691</ele>
        <time>2015-10-17T19:24:41Z</time>
      </trkpt>
      <trkpt lat="45.86666" lon="2.77906">
        <ele>689</ele>
        <time>2015-10-17T19:26:41Z</time>
      </trkpt>
      <trkpt lat="45.86646" lon="2.77923">
        <ele>687</ele>
        <time>2015-10-17T19:28:41Z</time>
      </trkpt>
      <trkpt lat="45.86628" lon="2.77908">
        <ele>689</ele>
        <time>2015-10-17T19:30:41Z</time>
      </trkpt>
      <trkpt lat="45.86589" lon="2.77842">
        <ele>691</ele>
        <time>2015-10-17T19:32:41Z</time>
      </trkpt>
      <trkpt lat="45.86581" lon="2.77843">
        <ele>691</ele>
        <time>2015-10-17T19:34:41Z</time>
      </trkpt>
      <trkpt lat="45.86578" lon="2.77854">
        <ele>690</ele>
        <time>2015-10-17T19:36:41Z</time>
      </trkpt>
      <trkpt lat="45.86601" lon="2.77884">
        <ele>690</ele>
        <time>2015-10-17T19:38:41Z</time>
      </trkpt>
      <trkpt lat="45.8661" lon="2.77913">
        <ele>689</ele>
        <time>2015-10-17T19:40:41Z</time>
      </trkpt>
      <trkpt lat="45.86619" lon="2.77939">
        <ele>688</ele>
        <time>2015-10-17T19:42:41Z</time>
      </trkpt>
      <trkpt lat="45.86639" lon="2.77992">
        <ele>687</ele>
        <time>2015-10-17T19:44:41Z</time>
      </trkpt>
      <trkpt lat="45.86659" lon="2.78009">
        <ele>687</ele>
        <time>2015-10-17T19:46:41Z</time>
      </trkpt>
      <trkpt lat="45.86687" lon="2.77996">
        <ele>687</ele>
        <time>2015-10-17T19:48:41Z</time>
      </trkpt>
      <trkpt lat="45.86728" lon="2.77982">
        <ele>690</ele>
        <time>2015-10-17T19:50:41Z</time>
      </trkpt>
      <trkpt lat="45.86754" lon="2.77982">
        <ele>692</ele>
        <time>2015-10-17T19:52:41Z</time>
      </trkpt>
      <trkpt lat="45.86772" lon="2.77984">
        <ele>694</ele>
        <time>2015-10-17T19:54:41Z</time>
      </trkpt>
      <trkpt lat="45.86803" lon="2.77992">
        <ele>698</ele>
        <time>2015-10-17T19:56:41Z</time>
      </trkpt>
      <trkpt lat="45.8684" lon="2.78014">
        <ele>704</ele>
        <time>2015-10-17T19:58:41Z</time>
      </trkpt>
      <trkpt lat="45.86858" lon="2.7803">
        <ele>706</ele>
        <time>2015-10-17T20:00:41Z</time>
      </trkpt>
      <trkpt lat="45.86868" lon="2.78058">
        <ele>709</ele>
        <time>2015-10-17T20:02:41Z</time>
      </trkpt>
      <trkpt lat="45.86892" lon="2.78166">
        <ele>712</ele>
        <time>2015-10-17T20:04:41Z</time>
      </trkpt>
      <trkpt lat="45.86909" lon="2.78209">
        <ele>714</ele>
        <time>2015-10-17T20:06:41Z</time>
      </trkpt>
      <trkpt lat="45.86929" lon="2.78234">
        <ele>715</ele>
        <time>2015-10-17T20:08:41Z</time>
      </trkpt>
      <trkpt lat="45.86942" lon="2.78256">
        <ele>715</ele>
        <time>2015-10-17T20:10:41Z</time>
      </trkpt>
      <trkpt lat="45.86965" lon="2.78271">
        <ele>715</ele>
        <time>2015-10-17T20:12:41Z</time>
      </trkpt>
      <trkpt lat="45.86982" lon="2.78282">
        <ele>715</ele>
        <time>2015-10-17T20:14:41Z</time>
      </trkpt>
      <trkpt lat="45.87021" lon="2.78352">
        <ele>717</ele>
        <time>2015-10-17T20:16:41Z</time>
      </trkpt>
      <trkpt lat="45.87033" lon="2.7838">
        <ele>717</ele>
        <time>2015-10-17T20:18:41Z</time>
      </trkpt>
      <trkpt lat="45.87023" lon="2.78432">
        <ele>719</ele>
        <time>2015-10-17T20:20:41Z</time>
      </trkpt>
      <trkpt lat="45.87018" lon="2.78473">
        <ele>720</ele>
        <time>2015-10-17T20:22:41Z</time>
      </trkpt>
      <trkpt lat="45.87041" lon="2.78537">
        <ele>720</ele>
        <time>2015-10-17T20:24:41Z</time>
      </trkpt>
      <trkpt lat="45.87059" lon="2.78556">
        <ele>719</ele>
        <time>2015-10-17T20:26:41Z</time>
      </trkpt>
      <trkpt lat="45.87077" lon="2.78588">
        <ele>719</ele>
        <time>2015-10-17T20:28:41Z</time>
      </trkpt>
      <trkpt lat="45.87096" lon="2.78629">
        <ele>718</ele>
        <time>2015-10-17T20:30:41Z</time>
      </trkpt>
      <trkpt lat="45.87111" lon="2.78655">
        <ele>718</ele>
        <time>2015-10-17T20:32:41Z</time>
      </trkpt>
      <trkpt lat="45.87138" lon="2.78728">
        <ele>719</ele>
        <time>2015-10-17T20:34:41Z</time>
      </trkpt>
      <trkpt lat="45.8716" lon="2.78784">
        <ele>721</ele>
        <time>2015-10-17T20:36:41Z</time>
      </trkpt>
      <trkpt lat="45.87181" lon="2.78818">
        <ele>723</ele>
        <time>2015-10-17T20:38:41Z</time>
      </trkpt>
      <trkpt lat="45.87213" lon="2.78837">
        <ele>724</ele>
        <time>2015-10-17T20:40:41Z</time>
      </trkpt>
      <trkpt lat="45.87229" lon="2.78953">
        <ele>726</ele>
        <time>2015-10-17T20:42:41Z</time>
      </trkpt>
      <trkpt lat="45.87239" lon="2.79011">
        <ele>726</ele>
        <time>2015-10-17T20:44:41Z</time>
      </trkpt>
      <trkpt lat="45.87257" lon="2.79125">
        <ele>725</ele>
        <time>2015-10-17T20:46:41Z</time>
      </trkpt>
      <trkpt lat="45.87262" lon="2.79189">
        <ele>724</ele>
        <time>2015-10-17T20:48:41Z</time>
      </trkpt>
      <trkpt lat="45.87284" lon="2.79284">
        <ele>725</ele>
        <time>2015-10-17T20:50:41Z</time>
      </trkpt>
      <trkpt lat="45.87317" lon="2.79355">
        <ele>724</ele>
        <time>2015-10-17T20:52:41Z</time>
      </trkpt>
      <trkpt lat="45.87332" lon="2.79393">
        <ele>723</ele>
        <time>2015-10-17T20:54:41Z</time>
      </trkpt>
      <trkpt lat="45.8728" lon="2.79458">
        <ele>725</ele>
        <time>2015-10-17T20:56:41Z</time>
      </trkpt>
      <trkpt lat="45.87334" lon="2.79506">
        <ele>722</ele>
        <time>2015-10-17T20:58:41Z</time>
      </trkpt>
      <trkpt lat="45.87435" lon="2.79609">
        <ele>718</ele>
        <time>2015-10-17T21:00:41Z</time>
      </trkpt>
      <trkpt lat="45.87384" lon="2.79708">
        <ele>714</ele>
        <time>2015-10-17T21:02:41Z</time>
      </trkpt>
      <trkpt lat="45.87399" lon="2.79802">
        <ele>712</ele>
        <time>2015-10-17T21:04:41Z</time>
      </trkpt>
      <trkpt lat="45.87486" lon="2.79982">
        <ele>703</ele>
        <time>2015-10-17T21:06:41Z</time>
      </trkpt>
      <trkpt lat="45.87471" lon="2.80077">
        <ele>704</ele>
        <time>2015-10-17T21:08:41Z</time>
      </trkpt>
      <trkpt lat="45.87465" lon="2.80162">
        <ele>702</ele>
        <time>2015-10-17T21:10:41Z</time>
      </trkpt>
      <trkpt lat="45.87465" lon="2.80278">
        <ele>697</ele>
        <time>2015-10-17T21:12:41Z</time>
      </trkpt>
      <trkpt lat="45.87459" lon="2.80347">
        <ele>692</ele>
        <time>2015-10-17T21:14:41Z</time>
      </trkpt>
      <trkpt lat="45.87474" lon="2.80411">
        <ele>690</ele>
        <time>2015-10-17T21:16:41Z</time>
      </trkpt>
      <trkpt lat="45.87504" lon="2.8048">
        <ele>685</ele>
        <time>2015-10-17T21:18:41Z</time>
      </trkpt>
      <trkpt lat="45.87537" lon="2.80523">
        <ele>685</ele>
        <time>2015-10-17T21:20:41Z</time>
      </trkpt>
      <trkpt lat="45.87561" lon="2.80583">
        <ele>679</ele>
        <time>2015-10-17T21:22:41Z</time>
      </trkpt>
      <trkpt lat="45.87585" lon="2.80647">
        <ele>672</ele>
        <time>2015-10-17T21:24:41Z</time>
      </trkpt>
      <trkpt lat="45.87626" lon="2.80793">
        <ele>651</ele>
        <time>2015-10-17T21:26:41Z</time>
      </trkpt>
      <trkpt lat="45.87686" lon="2.80875">
        <ele>640</ele>
        <time>2015-10-17T21:28:41Z</time>
      </trkpt>
      <trkpt lat="45.87731" lon="2.80888">
        <ele>634</ele>
        <time>2015-10-17T21:30:41Z</time>
      </trkpt>
      <trkpt lat="45.87806" lon="2.80853">
        <ele>623</ele>
        <time>2015-10-17T21:32:41Z</time>
      </trkpt>
      <trkpt lat="45.87874" lon="2.80823">
        <ele>606</ele>
        <time>2015-10-17T21:34:41Z</time>
      </trkpt>
      <trkpt lat="45.87903" lon="2.80788">
        <ele>599</ele>
        <time>2015-10-17T21:36:41Z</time>
      </trkpt>
      <trkpt lat="45.87936" lon="2.80827">
        <ele>585</ele>
        <time>2015-10-17T21:38:41Z</time>
      </trkpt>
      <trkpt lat="45.87942" lon="2.80884">
        <ele>572</ele>
        <time>2015-10-17T21:40:41Z</time>
      </trkpt>
      <trkpt lat="45.87974" lon="2.80996">
        <ele>564</ele>
        <time>2015-10-17T21:42:41Z</time>
      </trkpt>
      <trkpt lat="45.87934" lon="2.81157">
        <ele>568</ele>
        <time>2015-10-17T21:44:41Z</time>
      </trkpt>
      <trkpt lat="45.8798" lon="2.81288">
        <ele>572</ele>
        <time>2015-10-17T21:46:41Z</time>
      </trkpt>
      <trkpt lat="45.88039" lon="2.81423">
        <ele>569</ele>
        <time>2015-10-17T21:48:41Z</time>
      </trkpt>
      <trkpt lat="45.88036" lon="2.81623">
        <ele>580</ele>
        <time>2015-10-17T21:50:41Z</time>
      </trkpt>
      <trkpt lat="45.88058" lon="2.81618">
        <ele>588</ele>
        <time>2015-10-17T21:52:41Z</time>
      </trkpt>
      <trkpt lat="45.88094" lon="2.81541">
        <ele>584</ele>
        <time>2015-10-17T21:54:41Z</time>
      </trkpt>
      <trkpt lat="45.88136" lon="2.81554">
        <ele>588</ele>
        <time>2015-10-17T21:56:41Z</time>
      </trkpt>
      <trkpt lat="45.88176" lon="2.81539">
        <ele>587</ele>
        <time>2015-10-17T21:58:41Z</time>
      </trkpt>
      <trkpt lat="45.88242" lon="2.8153">
        <ele>587</ele>
        <time>2015-10-17T22:00:41Z</time>
      </trkpt>
      <trkpt lat="45.88343" lon="2.81498">
        <ele>589</ele>
        <time>2015-10-17T22:02:41Z</time>
      </trkpt>
      <trkpt lat="45.88367" lon="2.81475">
        <ele>589</ele>
        <time>2015-10-17T22:04:41Z</time>
      </trkpt>
      <trkpt lat="45.884" lon="2.81408">
        <ele>578</ele>
        <time>2015-10-17T22:06:41Z</time>
      </trkpt>
      <trkpt lat="45.88432" lon="2.81333">
        <ele>575</ele>
        <time>2015-10-17T22:08:41Z</time>
      </trkpt>
      <trkpt lat="45.88485" lon="2.81153">
        <ele>571</ele>
        <time>2015-10-17T22:10:41Z</time>
      </trkpt>
      <trkpt lat="45.88493" lon="2.81075">
        <ele>568</ele>
        <time>2015-10-17T22:12:41Z</time>
      </trkpt>
      <trkpt lat="45.88466" lon="2.80966">
        <ele>571</ele>
        <time>2015-10-17T22:14:41Z</time>
      </trkpt>
      <trkpt lat="45.88424" lon="2.80893">
        <ele>568</ele>
        <time>2015-10-17T22:16:41Z</time>
      </trkpt>
      <trkpt lat="45.88364" lon="2.8082">
        <ele>566</ele>
        <time>2015-10-17T22:18:41Z</time>
      </trkpt>
      <trkpt lat="45.88302" lon="2.80736">
        <ele>561</ele>
        <time>2015-10-17T22:20:41Z</time>
      </trkpt>
      <trkpt lat="45.8832" lon="2.80689">
        <ele>563</ele>
        <time>2015-10-17T22:22:41Z</time>
      </trkpt>
      <trkpt lat="45.88387" lon="2.8061">
        <ele>569</ele>
        <time>2015-10-17T22:24:41Z</time>
      </trkpt>
      <trkpt lat="45.88408" lon="2.80571">
        <ele>565</ele>
        <time>2015-10-17T22:26:41Z</time>
      </trkpt>
      <trkpt lat="45.88432" lon="2.80507">
        <ele>564</ele>
        <time>2015-10-17T22:28:41Z</time>
      </trkpt>
      <trkpt lat="45.88406" lon="2.80408">
        <ele>560</ele>
        <time>2015-10-17T22:30:41Z</time>
      </trkpt>
      <trkpt lat="45.88384" lon="2.80378">
        <ele>560</ele>
        <time>2015-10-17T22:32:41Z</time>
      </trkpt>
      <trkpt lat="45.88366" lon="2.80318">
        <ele>558</ele>
        <time>2015-10-17T22:34:41Z</time>
      </trkpt>
      <trkpt lat="45.88387" lon="2.80299">
        <ele>559</ele>
        <time>2015-10-17T22:36:41Z</time>
      </trkpt>
      <trkpt lat="45.88446" lon="2.8035">
        <ele>559</ele>
        <time>2015-10-17T22:38:41Z</time>
      </trkpt>
      <trkpt lat="45.88538" lon="2.80438">
        <ele>564</ele>
        <time>2015-10-17T22:40:41Z</time>
      </trkpt>
      <trkpt lat="45.88597" lon="2.80528">
        <ele>574</ele>
        <time>2015-10-17T22:42:41Z</time>
      </trkpt>
      <trkpt lat="45.8862" lon="2.80552">
        <ele>577</ele>
        <time>2015-10-17T22:44:41Z</time>
      </trkpt>
      <trkpt lat="45.88685" lon="2.8058">
        <ele>568</ele>
        <time>2015-10-17T22:46:41Z</time>
      </trkpt>
      <trkpt lat="45.88789" lon="2.80603">
        <ele>571</ele>
        <time>2015-10-17T22:48:41Z</time>
      </trkpt>
      <trkpt lat="45.88886" lon="2.80565">
        <ele>570</ele>
        <time>2015-10-17T22:50:41Z</time>
      </trkpt>
      <trkpt lat="45.88914" lon="2.80518">
        <ele>564</ele>
        <time>2015-10-17T22:52:41Z</time>
      </trkpt>
      <trkpt lat="45.88942" lon="2.80369">
        <ele>568</ele>
        <time>2015-10-17T22:54:41Z</time>
      </trkpt>
      <trkpt lat="45.88896" lon="2.80236">
        <ele>556</ele>
        <time>2015-10-17T22:56:41Z</time>
      </trkpt>
      <trkpt lat="45.88871" lon="2.80082">
        <ele>547</ele>
        <time>2015-10-17T22:58:41Z</time>
      </trkpt>
      <trkpt lat="45.88865" lon="2.80035">
        <ele>544</ele>
        <time>2015-10-17T23:00:41Z</time>
      </trkpt>
      <trkpt lat="45.88895" lon="2.80052">
        <ele>546</ele>
        <time>2015-10-17T23:02:41Z</time>
      </trkpt>
      <trkpt lat="45.88939" lon="2.80088">
        <ele>549</ele>
        <time>2015-10-17T23:04:41Z</time>
      </trkpt>
      <trkpt lat="45.89001" lon="2.80133">
        <ele>550</ele>
        <time>2015-10-17T23:06:41Z</time>
      </trkpt>
      <trkpt lat="45.89056" lon="2.80176">
        <ele>547</ele>
        <time>2015-10-17T23:08:41Z</time>
      </trkpt>
      <trkpt lat="45.89166" lon="2.80281">
        <ele>549</ele>
        <time>2015-10-17T23:10:41Z</time>
      </trkpt>
      <trkpt lat="45.89232" lon="2.80367">
        <ele>549</ele>
        <time>2015-10-17T23:12:41Z</time>
      </trkpt>
      <trkpt lat="45.89268" lon="2.80412">
        <ele>549</ele>
        <time>2015-10-17T23:14:41Z</time>
      </trkpt>
      <trkpt lat="45.89359" lon="2.80518">
        <ele>558</ele>
        <time>2015-10-17T23:16:41Z</time>
      </trkpt>
      <trkpt lat="45.89423" lon="2.80552">
        <ele>570</ele>
        <time>2015-10-17T23:18:41Z</time>
      </trkpt>
      <trkpt lat="45.89481" lon="2.80539">
        <ele>571</ele>
        <time>2015-10-17T23:20:41Z</time>
      </trkpt>
      <trkpt lat="45.89526" lon="2.8049">
        <ele>566</ele>
        <time>2015-10-17T23:22:41Z</time>
      </trkpt>
      <trkpt lat="45.89547" lon="2.8043">
        <ele>563</ele>
        <time>2015-10-17T23:24:41Z</time>
      </trkpt>
      <trkpt lat="45.89532" lon="2.80206">
        <ele>549</ele>
        <time>2015-10-17T23:26:41Z</time>
      </trkpt>
      <trkpt lat="45.89546" lon="2.80155">
        <ele>548</ele>
        <time>2015-10-17T23:28:41Z</time>
      </trkpt>
      <trkpt lat="45.89573" lon="2.80067">
        <ele>543</ele>
        <time>2015-10-17T23:30:41Z</time>
      </trkpt>
      <trkpt lat="45.89646" lon="2.79983">
        <ele>552</ele>
        <time>2015-10-17T23:32:41Z</time>
      </trkpt>
      <trkpt lat="45.89665" lon="2.79947">
        <ele>547</ele>
        <time>2015-10-17T23:34:41Z</time>
      </trkpt>
      <trkpt lat="45.89667" lon="2.79915">
        <ele>539</ele>
        <time>2015-10-17T23:36:41Z</time>
      </trkpt>
      <trkpt lat="45.89743" lon="2.79859">
        <ele>540</ele>
        <time>2015-10-17T23:38:41Z</time>
      </trkpt>
      <trkpt lat="45.89791" lon="2.79842">
        <ele>540</ele>
        <time>2015-10-17T23:40:41Z</time>
      </trkpt>
      <trkpt lat="45.89883" lon="2.79822">
        <ele>538</ele>
        <time>2015-10-17T23:42:41Z</time>
      </trkpt>
      <trkpt lat="45.89921" lon="2.79837">
        <ele>538</ele>
        <time>2015-10-17T23:44:41Z</time>
      </trkpt>
      <trkpt lat="45.89988" lon="2.79904">
        <ele>541</ele>
        <time>2015-10-17T23:46:41Z</time>
      </trkpt>
      <trkpt lat="45.90059" lon="2.79949">
        <ele>542</ele>
        <time>2015-10-17T23:48:41Z</time>
      </trkpt>
      <trkpt lat="45.90098" lon="2.79966">
        <ele>542</ele>
        <time>2015-10-17T23:50:41Z</time>
      </trkpt>
      <trkpt lat="45.90133" lon="2.79994">
        <ele>541</ele>
        <time>2015-10-17T23:52:41Z</time>
      </trkpt>
      <trkpt lat="45.90168" lon="2.8">
        <ele>536</ele>
        <time>2015-10-17T23:54:41Z</time>
      </trkpt>
      <trkpt lat="45.902" lon="2.80037">
        <ele>542</ele>
        <time>2015-10-17T23:56:41Z</time>
      </trkpt>
      <trkpt lat="45.90224" lon="2.80063">
        <ele>547</ele>
        <time>2015-10-17T23:58:41Z</time>
      </trkpt>
      <trkpt lat="45.90315" lon="2.80112">
        <ele>556</ele>
        <time>2015-10-18T00:00:41Z</time>
      </trkpt>
      <trkpt lat="45.90394" lon="2.80097">
        <ele>558</ele>
        <time>2015-10-18T00:02:41Z</time>
      </trkpt>
      <trkpt lat="45.90436" lon="2.80071">
        <ele>559</ele>
        <time>2015-10-18T00:04:41Z</time>
      </trkpt>
      <trkpt lat="45.90463" lon="2.80033">
        <ele>556</ele>
        <time>2015-10-18T00:06:41Z</time>
      </trkpt>
      <trkpt lat="45.90507" lon="2.79942">
        <ele>541</ele>
        <time>2015-10-18T00:08:41Z</time>
      </trkpt>
      <trkpt lat="45.90534" lon="2.79915">
        <ele>538</ele>
        <time>2015-10-18T00:10:41Z</time>
      </trkpt>
      <trkpt lat="45.90552" lon="2.79904">
        <ele>539</ele>
        <time>2015-10-18T00:12:41Z</time>
      </trkpt>
      <trkpt lat="45.90578" lon="2.79894">
        <ele>541</ele>
        <time>2015-10-18T00:14:41Z</time>
      </trkpt>
      <trkpt lat="45.90616" lon="2.79902">
        <ele>539</ele>
        <time>2015-10-18T00:16:41Z</time>
      </trkpt>
      <trkpt lat="45.90598" lon="2.79873">
        <ele>535</ele>
        <time>2015-10-18T00:18:41Z</time>
      </trkpt>
      <trkpt lat="45.90571" lon="2.7985">
        <ele>530</ele>
        <time>2015-10-18T00:20:41Z</time>
      </trkpt>
      <trkpt lat="45.90528" lon="2.79782">
        <ele>539</ele>
        <time>2015-10-18T00:22:41Z</time>
      </trkpt>
      <trkpt lat="45.90519" lon="2.79771">
        <ele>542</ele>
        <time>2015-10-18T00:24:41Z</time>
      </trkpt>
      <trkpt lat="45.90498" lon="2.7978">
        <ele>541</ele>
        <time>2015-10-18T00:26:41Z</time>
      </trkpt>
      <trkpt lat="45.90475" lon="2.79781">
        <ele>544</ele>
        <time>2015-10-18T00:28:41Z</time>
      </trkpt>
      <trkpt lat="45.90455" lon="2.79777">
        <ele>548</ele>
        <time>2015-10-18T00:30:41Z</time>
      </trkpt>
      <trkpt lat="45.90425" lon="2.79741">
        <ele>561</ele>
        <time>2015-10-18T00:32:41Z</time>
      </trkpt>
      <trkpt lat="45.90398" lon="2.79729">
        <ele>564</ele>
        <time>2015-10-18T00:34:41Z</time>
      </trkpt>
      <trkpt lat="45.90345" lon="2.79696">
        <ele>568</ele>
        <time>2015-10-18T00:36:41Z</time>
      </trkpt>
      <trkpt lat="45.90306" lon="2.79646">
        <ele>575</ele>
        <time>2015-10-18T00:38:41Z</time>
      </trkpt>
      <trkpt lat="45.90288" lon="2.7962">
        <ele>579</ele>
        <time>2015-10-18T00:40:41Z</time>
      </trkpt>
      <trkpt lat="45.90254" lon="2.7957">
        <ele>584</ele>
        <time>2015-10-18T00:42:41Z</time>
      </trkpt>
      <trkpt lat="45.90245" lon="2.79548">
        <ele>586</ele>
        <time>2015-10-18T00:44:41Z</time>
      </trkpt>
      <trkpt lat="45.90248" lon="2.79528">
        <ele>588</ele>
        <time>2015-10-18T00:46:41Z</time>
      </trkpt>
      <trkpt lat="45.90258" lon="2.79515">
        <ele>591</ele>
        <time>2015-10-18T00:48:41Z</time>
      </trkpt>
      <trkpt lat="45.90277" lon="2.79475">
        <ele>600</ele>
        <time>2015-10-18T00:50:41Z</time>
      </trkpt>
      <trkpt lat="45.90276" lon="2.79416">
        <ele>610</ele>
        <time>2015-10-18T00:52:41Z</time>
      </trkpt>
      <trkpt lat="45.9025" lon="2.79386">
        <ele>617</ele>
        <time>2015-10-18T00:54:41Z</time>
      </trkpt>
      <trkpt lat="45.90207" lon="2.79359">
        <ele>615</ele>
        <time>2015-10-18T00:56:41Z</time>
      </trkpt>
      <trkpt lat="45.90179" lon="2.79315">
        <ele>619</ele>
        <time>2015-10-18T00:58:41Z</time>
      </trkpt>
      <trkpt lat="45.90153" lon="2.79219">
        <ele>628</ele>
        <time>2015-10-18T01:00:41Z</time>
      </trkpt>
      <trkpt lat="45.9013" lon="2.79098">
        <ele>640</ele>
        <time>2015-10-18T01:02:41Z</time>
      </trkpt>
      <trkpt lat="45.90127" lon="2.7907">
        <ele>644</ele>
        <time>2015-10-18T01:04:41Z</time>
      </trkpt>
      <trkpt lat="45.90129" lon="2.79049">
        <ele>647</ele>
        <time>2015-10-18T01:06:41Z</time>
      </trkpt>
      <trkpt lat="45.90152" lon="2.79026">
        <ele>653</ele>
        <time>2015-10-18T01:08:41Z</time>
      </trkpt>
      <trkpt lat="45.90207" lon="2.78976">
        <ele>659</ele>
        <time>2015-10-18T01:10:41Z</time>
      </trkpt>
      <trkpt lat="45.90223" lon="2.78955">
        <ele>661</ele>
        <time>2015-10-18T01:12:41Z</time>
      </trkpt>
      <trkpt lat="45.90221" lon="2.78926">
        <ele>662</ele>
        <time>2015-10-18T01:14:41Z</time>
      </trkpt>
      <trkpt lat="45.90207" lon="2.7889">
        <ele>661</ele>
        <time>2015-10-18T01:16:41Z</time>
      </trkpt>
      <trkpt lat="45.90154" lon="2.7872">
        <ele>662</ele>
        <time>2015-10-18T01:18:41Z</time>
      </trkpt>
      <trkpt lat="45.90149" lon="2.78651">
        <ele>662</ele>
        <time>2015-10-18T01:20:41Z</time>
      </trkpt>
      <trkpt lat="45.9014" lon="2.78556">
        <ele>661</ele>
        <time>2015-10-18T01:22:41Z</time>
      </trkpt>
      <trkpt lat="45.90121" lon="2.78376">
        <ele>664</ele>
        <time>2015-10-18T01:24:41Z</time>
      </trkpt>
      <trkpt lat="45.90118" lon="2.78264">
        <ele>664</ele>
        <time>2015-10-18T01:26:41Z</time>
      </trkpt>
      <trkpt lat="45.90112" lon="2.78185">
        <ele>670</ele>
        <time>2015-10-18T01:28:41Z</time>
      </trkpt>
      <trkpt lat="45.90103" lon="2.78144">
        <ele>673</ele>
        <time>2015-10-18T01:30:41Z</time>
      </trkpt>
      <trkpt lat="45.90094" lon="2.78089">
        <ele>676</ele>
        <time>2015-10-18T01:32:41Z</time>
      </trkpt>
      <trkpt lat="45.90125" lon="2.78048">
        <ele>678</ele>
        <time>2015-10-18T01:34:41Z</time>
      </trkpt>
      <trkpt lat="45.90146" lon="2.78039">
        <ele>677</ele>
        <time>2015-10-18T01:36:41Z</time>
      </trkpt>
      <trkpt lat="45.90161" lon="2.78013">
        <ele>677</ele>
        <time>2015-10-18T01:38:41Z</time>
      </trkpt>
      <trkpt lat="45.90183" lon="2.77908">
        <ele>679</ele>
        <time>2015-10-18T01:40:41Z</time>
      </trkpt>
      <trkpt lat="45.90191" lon="2.77842">
        <ele>681</ele>
        <time>2015-10-18T01:42:41Z</time>
      </trkpt>
      <trkpt lat="45.90215" lon="2.77767">
        <ele>684</ele>
        <time>2015-10-18T01:44:41Z</time>
      </trkpt>
      <trkpt lat="45.90227" lon="2.77732">
        <ele>685</ele>
        <time>2015-10-18T01:46:41Z</time>
      </trkpt>
      <trkpt lat="45.90206" lon="2.77659">
        <ele>685</ele>
        <time>2015-10-18T01:48:41Z</time>
      </trkpt>
      <trkpt lat="45.90159" lon="2.77642">
        <ele>685</ele>
        <time>2015-10-18T01:50:41Z</time>
      </trkpt>
      <trkpt lat="45.90113" lon="2.77612">
        <ele>685</ele>
        <time>2015-10-18T01:52:41Z</time>
      </trkpt>
      <trkpt lat="45.90041" lon="2.77593">
        <ele>684</ele>
        <time>2015-10-18T01:54:41Z</time>
      </trkpt>
    </trkseg>
  </trk>
</gpx>